createdAt,value
2019-05-10T00:02:02.812Z,9.30
2019-05-10T00:04:50.416Z,9.30
2019-05-10T00:07:38.248Z,9.20
2019-05-10T00:10:07.258Z,9.10
2019-05-10T00:13:01.731Z,9.10
2019-05-10T00:15:32.942Z,9.00
2019-05-10T00:18:03.012Z,8.90
2019-05-10T00:20:33.100Z,8.80
2019-05-10T00:23:03.248Z,8.70
2019-05-10T00:25:33.395Z,8.60
2019-05-10T00:28:03.549Z,8.50
2019-05-10T00:30:34.627Z,8.50
2019-05-10T00:33:04.695Z,8.50
2019-05-10T00:35:34.943Z,8.50
2019-05-10T00:38:04.954Z,8.50
2019-05-10T00:40:34.916Z,8.60
2019-05-10T00:43:05.045Z,8.60
2019-05-10T00:45:35.006Z,8.60
2019-05-10T00:48:05.046Z,8.70
2019-05-10T00:50:35.009Z,8.70
2019-05-10T00:53:05.092Z,8.70
2019-05-10T00:55:35.058Z,8.80
2019-05-10T00:58:05.022Z,8.90
2019-05-10T01:00:34.987Z,8.80
2019-05-10T01:03:05.090Z,8.60
2019-05-10T01:05:35.143Z,8.50
2019-05-10T01:08:05.131Z,8.50
2019-05-10T01:10:35.116Z,8.60
2019-05-10T01:13:05.163Z,8.70
2019-05-10T01:15:35.153Z,8.70
2019-05-10T01:18:05.224Z,8.80
2019-05-10T01:20:36.439Z,8.80
2019-05-10T01:23:06.583Z,8.80
2019-05-10T01:25:36.570Z,8.70
2019-05-10T01:28:06.617Z,8.60
2019-05-10T01:30:36.634Z,8.60
2019-05-10T01:33:06.610Z,8.60
2019-05-10T01:35:36.641Z,8.50
2019-05-10T01:38:06.627Z,8.80
2019-05-10T01:40:36.642Z,8.80
2019-05-10T01:43:06.622Z,8.70
2019-05-10T01:45:36.586Z,8.70
2019-05-10T01:48:06.579Z,8.70
2019-05-10T01:50:36.607Z,8.60
2019-05-10T01:53:06.590Z,8.50
2019-05-10T01:55:50.744Z,8.40
2019-05-10T01:58:08.330Z,8.50
2019-05-10T02:00:38.406Z,8.30
2019-05-10T02:03:08.435Z,8.10
2019-05-10T02:05:38.418Z,8.20
2019-05-10T02:08:08.465Z,8.40
2019-05-10T02:10:38.718Z,8.30
2019-05-10T02:13:09.234Z,8.20
2019-05-10T02:15:40.740Z,8.10
2019-05-10T02:18:10.771Z,8.10
2019-05-10T02:20:40.803Z,8.00
2019-05-10T02:23:11.461Z,7.90
2019-05-10T02:25:41.461Z,7.90
2019-05-10T02:28:11.595Z,7.90
2019-05-10T02:30:41.553Z,8.00
2019-05-10T02:33:11.607Z,7.90
2019-05-10T02:35:41.654Z,7.70
2019-05-10T02:38:11.638Z,7.70
2019-05-10T02:40:41.697Z,7.60
2019-05-10T02:43:11.767Z,7.50
2019-05-10T02:45:41.732Z,7.50
2019-05-10T02:48:12.796Z,7.60
2019-05-10T02:50:42.843Z,7.40
2019-05-10T02:53:12.903Z,7.40
2019-05-10T02:55:42.865Z,7.50
2019-05-10T02:58:15.267Z,7.50
2019-05-10T03:00:44.674Z,7.50
2019-05-10T03:03:14.664Z,7.40
2019-05-10T03:05:48.419Z,7.30
2019-05-10T03:08:16.829Z,7.20
2019-05-10T03:10:56.249Z,7.20
2019-05-10T03:13:29.198Z,7.10
2019-05-10T03:16:02.424Z,7.10
2019-05-10T03:18:32.628Z,7.00
2019-05-10T03:21:02.795Z,7.00
2019-05-10T03:23:32.784Z,7.00
2019-05-10T03:26:02.763Z,6.80
2019-05-10T03:28:32.828Z,6.80
2019-05-10T03:31:02.792Z,6.70
2019-05-10T03:33:32.878Z,6.70
2019-05-10T03:36:02.959Z,6.70
2019-05-10T03:38:32.950Z,6.50
2019-05-10T03:41:03.176Z,6.40
2019-05-10T03:43:33.277Z,6.30
2019-05-10T03:46:03.275Z,6.30
2019-05-10T03:48:33.360Z,6.30
2019-05-10T03:51:03.393Z,6.40
2019-05-10T03:53:33.380Z,6.50
2019-05-10T03:56:03.468Z,6.50
2019-05-10T03:58:33.547Z,6.60
2019-05-10T04:01:03.859Z,6.60
2019-05-10T04:03:33.951Z,6.60
2019-05-10T04:06:04.242Z,6.70
2019-05-10T04:08:34.280Z,6.60
2019-05-10T04:11:04.354Z,6.50
2019-05-10T04:13:34.343Z,6.70
2019-05-10T04:16:04.398Z,6.70
2019-05-10T04:18:34.478Z,6.70
2019-05-10T04:21:05.594Z,6.70
2019-05-10T04:23:35.675Z,6.70
2019-05-10T04:26:05.709Z,6.70
2019-05-10T04:28:35.776Z,6.70
2019-05-10T04:31:05.823Z,6.80
2019-05-10T04:33:35.823Z,6.80
2019-05-10T04:36:05.799Z,6.90
2019-05-10T04:38:35.918Z,6.90
2019-05-10T04:41:05.983Z,6.90
2019-05-10T04:43:36.034Z,7.10
2019-05-10T04:46:06.071Z,7.10
2019-05-10T04:48:36.052Z,7.40
2019-05-10T04:51:06.055Z,7.60
2019-05-10T04:53:36.066Z,7.80
2019-05-10T04:56:06.025Z,8.00
2019-05-10T04:58:36.143Z,8.20
2019-05-10T05:01:07.194Z,8.40
2019-05-10T05:03:37.175Z,8.70
2019-05-10T05:06:07.142Z,8.80
2019-05-10T05:08:38.125Z,8.90
2019-05-10T05:11:08.143Z,9.00
2019-05-10T05:13:38.138Z,9.20
2019-05-10T05:16:08.159Z,9.30
2019-05-10T05:18:38.171Z,9.40
2019-05-10T05:21:08.157Z,9.60
2019-05-10T05:23:38.230Z,10.10
2019-05-10T05:26:08.210Z,11.40
2019-05-10T05:28:38.194Z,12.60
2019-05-10T05:31:08.186Z,13.50
2019-05-10T05:33:38.190Z,14.90
2019-05-10T05:36:08.179Z,15.30
2019-05-10T05:38:40.301Z,16.10
2019-05-10T05:41:09.982Z,16.50
2019-05-10T05:43:45.685Z,17.00
2019-05-10T05:46:14.469Z,17.10
2019-05-10T05:48:43.384Z,17.70
2019-05-10T05:51:13.444Z,17.70
2019-05-10T05:53:44.757Z,18.00
2019-05-10T05:56:15.968Z,18.00
2019-05-10T05:58:47.057Z,17.50
2019-05-10T06:01:28.914Z,16.90
2019-05-10T06:03:48.935Z,17.40
2019-05-10T06:06:23.182Z,16.50
2019-05-10T06:08:54.520Z,15.60
2019-05-10T06:11:23.548Z,14.10
2019-05-10T06:13:53.551Z,14.80
2019-05-10T06:16:23.634Z,16.30
2019-05-10T06:18:53.647Z,17.20
2019-05-10T06:21:26.575Z,18.10
2019-05-10T06:23:55.350Z,18.10
2019-05-10T06:26:28.654Z,18.50
2019-05-10T06:29:01.356Z,18.60
2019-05-10T06:31:28.840Z,18.80
2019-05-10T06:33:58.942Z,17.90
2019-05-10T06:36:28.929Z,19.30
2019-05-10T06:38:58.932Z,19.60
2019-05-10T06:41:32.412Z,20.40
2019-05-10T06:44:00.832Z,20.40
2019-05-10T06:46:31.192Z,20.20
2019-05-10T06:49:07.096Z,19.70
2019-05-10T06:51:35.737Z,20.60
2019-05-10T06:54:06.274Z,21.30
2019-05-10T06:56:36.302Z,20.20
2019-05-10T06:59:13.329Z,20.00
2019-05-10T07:01:44.500Z,21.00
2019-05-10T07:04:09.678Z,20.70
2019-05-10T07:06:39.693Z,20.80
2019-05-10T07:09:09.775Z,20.20
2019-05-10T07:11:39.821Z,20.20
2019-05-10T07:14:09.838Z,20.40
2019-05-10T07:16:39.847Z,21.70
2019-05-10T07:19:09.875Z,21.30
2019-05-10T07:21:44.742Z,22.00
2019-05-10T07:24:11.654Z,22.20
2019-05-10T07:26:41.714Z,22.40
2019-05-10T07:29:11.983Z,21.80
2019-05-10T07:31:42.061Z,22.00
2019-05-10T07:34:31.287Z,20.70
2019-05-10T07:37:04.679Z,21.70
2019-05-10T07:39:35.272Z,22.10
2019-05-10T07:42:08.961Z,21.90
2019-05-10T07:44:41.482Z,21.40
2019-05-10T07:47:10.547Z,21.10
2019-05-10T07:49:40.606Z,22.40
2019-05-10T07:52:10.699Z,23.00
2019-05-10T07:55:00.031Z,22.50
2019-05-10T07:57:30.054Z,22.00
2019-05-10T08:00:03.454Z,22.30
2019-05-10T08:02:33.535Z,22.00
2019-05-10T08:05:04.837Z,21.70
2019-05-10T08:07:38.746Z,20.50
2019-05-10T08:10:08.875Z,21.70
2019-05-10T08:12:45.498Z,21.50
2019-05-10T08:15:11.912Z,21.50
2019-05-10T08:17:45.625Z,21.90
2019-05-10T08:20:29.742Z,22.50
2019-05-10T08:22:46.326Z,22.50
2019-05-10T08:25:17.598Z,23.10
2019-05-10T08:27:50.674Z,21.40
2019-05-10T08:30:34.569Z,18.80
2019-05-10T08:33:09.966Z,19.10
2019-05-10T08:35:40.112Z,20.40
2019-05-10T08:38:12.730Z,20.80
2019-05-10T08:40:42.935Z,20.40
2019-05-10T08:43:16.625Z,21.30
2019-05-10T08:45:49.430Z,21.50
2019-05-10T08:48:23.284Z,22.60
2019-05-10T08:50:57.453Z,23.00
2019-05-10T08:53:25.171Z,23.30
2019-05-10T08:55:58.622Z,21.50
2019-05-10T08:58:31.415Z,20.60
2019-05-10T09:01:15.381Z,21.40
2019-05-10T09:03:32.283Z,20.20
2019-05-10T09:06:11.885Z,20.10
2019-05-10T09:08:36.519Z,20.50
2019-05-10T09:11:07.148Z,20.60
2019-05-10T09:13:41.146Z,20.30
2019-05-10T09:16:08.951Z,21.10
2019-05-10T09:18:46.632Z,22.10
2019-05-10T09:21:14.118Z,21.30
2019-05-10T09:23:42.788Z,21.90
2019-05-10T09:26:16.364Z,22.30
2019-05-10T09:28:47.631Z,22.30
2019-05-10T09:31:21.292Z,21.90
2019-05-10T09:33:49.431Z,22.40
2019-05-10T09:36:25.077Z,22.70
2019-05-10T09:38:52.730Z,21.70
2019-05-10T09:41:27.742Z,21.20
2019-05-10T09:43:54.788Z,21.10
2019-05-10T09:46:24.811Z,21.20
2019-05-10T09:49:06.291Z,21.30
2019-05-10T09:51:30.137Z,21.10
2019-05-10T09:54:00.437Z,21.20
2019-05-10T09:56:32.782Z,21.40
2019-05-10T09:59:03.536Z,21.00
2019-05-10T10:01:33.670Z,20.50
2019-05-10T10:04:04.835Z,19.90
2019-05-10T10:06:36.958Z,18.80
2019-05-10T10:09:10.842Z,18.80
2019-05-10T10:11:39.255Z,19.60
2019-05-10T10:14:10.194Z,20.30
2019-05-10T10:16:40.578Z,20.40
2019-05-10T10:19:10.712Z,20.10
2019-05-10T10:21:40.799Z,19.90
2019-05-10T10:24:15.684Z,20.30
2019-05-10T10:26:42.442Z,21.10
2019-05-10T10:29:12.430Z,20.60
2019-05-10T10:31:51.428Z,20.70
2019-05-10T10:34:14.161Z,20.60
2019-05-10T10:36:44.285Z,20.80
2019-05-10T10:39:14.431Z,20.50
2019-05-10T10:41:44.487Z,21.00
2019-05-10T10:44:18.029Z,20.40
2019-05-10T10:46:48.119Z,19.00
2019-05-10T10:49:23.075Z,19.30
2019-05-10T10:51:50.198Z,20.70
2019-05-10T10:54:22.536Z,21.00
2019-05-10T10:56:51.902Z,20.90
2019-05-10T10:59:21.935Z,20.30
2019-05-10T11:02:23.348Z,20.00
2019-05-10T11:04:23.675Z,19.60
2019-05-10T11:07:09.258Z,20.40
2019-05-10T11:09:25.376Z,20.00
2019-05-10T11:11:55.375Z,19.70
2019-05-10T11:14:25.503Z,19.90
2019-05-10T11:16:56.999Z,20.10
2019-05-10T11:19:27.334Z,20.30
2019-05-10T11:22:04.429Z,19.70
2019-05-10T11:24:30.821Z,20.30
2019-05-10T11:27:01.147Z,20.20
2019-05-10T11:29:31.308Z,20.20
2019-05-10T11:32:15.272Z,20.00
2019-05-10T11:34:37.475Z,20.30
2019-05-10T11:37:05.031Z,20.10
2019-05-10T11:39:42.009Z,20.20
2019-05-10T11:42:07.410Z,20.40
2019-05-10T11:44:43.867Z,20.20
2019-05-10T11:47:23.387Z,20.20
2019-05-10T11:49:40.955Z,20.40
2019-05-10T11:52:13.254Z,19.30
2019-05-10T11:54:42.679Z,19.50
2019-05-10T11:57:13.851Z,18.90
2019-05-10T11:59:44.252Z,19.10
2019-05-10T12:02:33.717Z,19.40
2019-05-10T12:04:45.935Z,18.90
2019-05-10T12:07:16.035Z,19.40
2019-05-10T12:09:53.462Z,19.70
2019-05-10T12:12:30.621Z,19.50
2019-05-10T12:14:53.728Z,19.40
2019-05-10T12:17:23.938Z,19.50
2019-05-10T12:19:56.377Z,19.90
2019-05-10T12:22:32.089Z,19.50
2019-05-10T12:25:20.554Z,19.70
2019-05-10T12:27:40.036Z,19.60
2019-05-10T12:30:02.723Z,20.20
2019-05-10T12:32:35.174Z,20.70
2019-05-10T12:35:02.911Z,21.20
2019-05-10T12:37:32.918Z,21.40
2019-05-10T12:40:09.913Z,21.60
2019-05-10T12:42:34.633Z,21.40
2019-05-10T12:45:05.153Z,21.20
2019-05-10T12:47:35.210Z,20.90
2019-05-10T12:50:05.667Z,20.50
2019-05-10T12:52:36.406Z,20.10
2019-05-10T12:55:07.639Z,20.00
2019-05-10T12:57:37.771Z,19.60
2019-05-10T13:00:13.204Z,19.40
2019-05-10T13:02:44.808Z,19.20
2019-05-10T13:05:15.217Z,19.50
2019-05-10T13:07:43.453Z,20.10
2019-05-10T13:10:13.685Z,20.70
2019-05-10T13:12:47.022Z,20.90
2019-05-10T13:15:15.683Z,20.70
2019-05-10T13:17:50.621Z,20.20
2019-05-10T13:20:17.503Z,20.80
2019-05-10T13:22:47.690Z,20.20
2019-05-10T13:25:18.731Z,19.60
2019-05-10T13:27:49.002Z,19.10
2019-05-10T13:30:27.433Z,19.40
2019-05-10T13:32:52.970Z,19.90
2019-05-10T13:35:22.846Z,19.50
2019-05-10T13:37:56.757Z,20.00
2019-05-10T13:40:25.215Z,20.40
2019-05-10T13:42:55.341Z,20.40
2019-05-10T13:45:25.475Z,20.30
2019-05-10T13:47:55.470Z,20.60
2019-05-10T13:50:25.498Z,20.40
2019-05-10T13:52:55.473Z,20.30
2019-05-10T13:55:25.578Z,19.60
2019-05-10T13:57:55.573Z,19.70
2019-05-10T14:00:33.159Z,19.60
2019-05-10T14:02:57.794Z,20.00
2019-05-10T14:05:27.859Z,20.40
2019-05-10T14:07:57.866Z,20.80
2019-05-10T14:10:27.935Z,19.90
2019-05-10T14:13:02.707Z,20.10
2019-05-10T14:15:29.993Z,20.40
2019-05-10T14:18:00.125Z,20.40
2019-05-10T14:20:30.190Z,20.10
2019-05-10T14:23:00.154Z,19.80
2019-05-10T14:25:36.359Z,19.80
2019-05-10T14:28:02.562Z,20.20
2019-05-10T14:30:32.712Z,20.10
2019-05-10T14:33:02.743Z,19.40
2019-05-10T14:35:32.735Z,19.20
2019-05-10T14:38:08.443Z,19.40
2019-05-10T14:40:34.480Z,20.00
2019-05-10T14:43:04.460Z,20.30
2019-05-10T14:45:34.530Z,20.30
2019-05-10T14:48:04.620Z,20.20
2019-05-10T14:50:34.690Z,20.20
2019-05-10T14:53:04.683Z,19.80
2019-05-10T14:55:36.849Z,19.70
2019-05-10T14:58:06.792Z,19.80
2019-05-10T15:00:37.196Z,19.60
2019-05-10T15:03:07.333Z,20.00
2019-05-10T15:05:37.498Z,20.00
2019-05-10T15:08:07.635Z,20.10
2019-05-10T15:10:39.737Z,20.40
2019-05-10T15:13:09.635Z,20.30
2019-05-10T15:15:39.603Z,19.90
2019-05-10T15:18:11.845Z,19.30
2019-05-10T15:20:41.999Z,19.60
2019-05-10T15:23:11.996Z,19.50
2019-05-10T15:25:55.839Z,19.80
2019-05-10T15:28:13.762Z,19.90
2019-05-10T15:30:45.777Z,19.80
2019-05-10T15:33:15.423Z,19.50
2019-05-10T15:35:51.010Z,19.00
2019-05-10T15:38:17.155Z,18.70
2019-05-10T15:40:47.156Z,18.40
2019-05-10T15:43:19.061Z,18.40
2019-05-10T15:45:52.873Z,18.60
2019-05-10T15:48:20.593Z,18.60
2019-05-10T15:50:50.595Z,18.60
2019-05-10T15:53:25.408Z,18.80
2019-05-10T15:55:52.480Z,18.90
2019-05-10T15:58:22.567Z,19.00
2019-05-10T16:00:52.684Z,18.90
2019-05-10T16:03:23.856Z,18.70
2019-05-10T16:06:00.807Z,18.70
2019-05-10T16:08:30.396Z,18.70
2019-05-10T16:10:57.395Z,18.40
2019-05-10T16:13:27.398Z,18.30
2019-05-10T16:15:58.152Z,18.30
2019-05-10T16:18:33.525Z,18.30
2019-05-10T16:21:00.768Z,18.20
2019-05-10T16:23:31.435Z,18.00
2019-05-10T16:26:01.503Z,18.10
2019-05-10T16:28:31.551Z,18.10
2019-05-10T16:31:01.543Z,18.20
2019-05-10T16:33:31.573Z,18.30
2019-05-10T16:36:01.600Z,18.40
2019-05-10T16:38:31.687Z,18.40
2019-05-10T16:41:01.735Z,18.10
2019-05-10T16:43:31.797Z,17.70
2019-05-10T16:46:02.827Z,17.50
2019-05-10T16:48:32.960Z,17.70
2019-05-10T16:51:03.762Z,17.60
2019-05-10T16:53:37.702Z,17.50
2019-05-10T16:56:06.452Z,17.30
2019-05-10T16:58:36.578Z,17.20
2019-05-10T17:01:06.587Z,17.00
2019-05-10T17:03:36.651Z,16.80
2019-05-10T17:06:06.674Z,16.80
2019-05-10T17:08:38.732Z,16.90
2019-05-10T17:11:10.181Z,16.80
2019-05-10T17:13:41.623Z,16.90
2019-05-10T17:16:16.949Z,17.00
2019-05-10T17:18:43.662Z,17.00
2019-05-10T17:21:13.646Z,17.00
2019-05-10T17:23:46.748Z,16.80
2019-05-10T17:26:16.451Z,16.80
2019-05-10T17:28:46.483Z,16.80
2019-05-10T17:31:16.562Z,16.70
2019-05-10T17:33:46.622Z,16.80
2019-05-10T17:36:19.850Z,16.90
2019-05-10T17:38:53.534Z,16.80
2019-05-10T17:41:24.946Z,16.90
2019-05-10T17:43:53.242Z,16.80
2019-05-10T17:46:23.295Z,16.80
2019-05-10T17:48:53.862Z,16.60
2019-05-10T17:51:23.893Z,16.50
2019-05-10T17:54:01.483Z,16.40
2019-05-10T17:56:25.693Z,16.30
2019-05-10T17:58:55.766Z,16.30
2019-05-10T18:01:25.763Z,16.30
2019-05-10T18:03:55.835Z,16.30
2019-05-10T18:06:28.328Z,16.20
2019-05-10T18:08:58.412Z,16.10
2019-05-10T18:11:28.511Z,16.00
2019-05-10T18:13:58.570Z,15.90
2019-05-10T18:16:28.675Z,15.80
2019-05-10T18:18:58.759Z,15.80
2019-05-10T18:21:29.090Z,15.70
2019-05-10T18:24:00.052Z,15.70
2019-05-10T18:26:34.205Z,15.70
2019-05-10T18:29:05.089Z,15.60
2019-05-10T18:31:35.202Z,15.50
2019-05-10T18:34:05.465Z,15.30
2019-05-10T18:36:50.940Z,15.20
2019-05-10T18:39:15.376Z,15.10
2019-05-10T18:41:41.412Z,15.10
2019-05-10T18:44:14.568Z,15.00
2019-05-10T18:46:45.954Z,14.90
2019-05-10T18:49:15.966Z,14.80
2019-05-10T18:51:46.921Z,14.80
2019-05-10T18:54:17.069Z,14.60
2019-05-10T18:56:50.465Z,14.50
2019-05-10T18:59:22.194Z,14.50
2019-05-10T19:01:52.276Z,14.50
2019-05-10T19:04:22.894Z,14.40
2019-05-10T19:07:07.660Z,14.30
2019-05-10T19:09:25.057Z,14.20
2019-05-10T19:11:55.168Z,14.10
2019-05-10T19:14:29.736Z,14.00
2019-05-10T19:16:57.172Z,13.90
2019-05-10T19:19:27.251Z,13.90
2019-05-10T19:21:57.617Z,13.70
2019-05-10T19:24:30.461Z,13.70
2019-05-10T19:27:01.413Z,13.70
2019-05-10T19:29:32.748Z,13.60
2019-05-10T19:32:02.821Z,13.50
2019-05-10T19:34:32.870Z,13.50
2019-05-10T19:37:03.590Z,13.50
2019-05-10T19:39:34.992Z,13.50
2019-05-10T19:42:06.266Z,13.40
2019-05-10T19:44:40.631Z,13.50
2019-05-10T19:47:11.022Z,13.50
2019-05-10T19:49:40.115Z,13.40
2019-05-10T19:52:10.215Z,13.40
2019-05-10T19:54:40.270Z,13.30
2019-05-10T19:57:16.231Z,13.20
2019-05-10T19:59:44.068Z,13.20
2019-05-10T20:02:14.107Z,13.10
2019-05-10T20:04:44.074Z,13.20
2019-05-10T20:07:14.194Z,13.20
2019-05-10T20:09:44.859Z,13.30
2019-05-10T20:12:14.961Z,13.30
2019-05-10T20:14:44.932Z,13.40
2019-05-10T20:17:15.156Z,13.50
2019-05-10T20:19:45.437Z,13.60
2019-05-10T20:22:15.499Z,13.70
2019-05-10T20:24:45.551Z,13.80
2019-05-10T20:27:17.435Z,13.60
2019-05-10T20:29:47.423Z,13.40
2019-05-10T20:32:17.507Z,13.40
2019-05-10T20:34:47.543Z,13.40
2019-05-10T20:37:17.630Z,13.40
2019-05-10T20:39:47.702Z,13.40
2019-05-10T20:42:17.759Z,13.40
2019-05-10T20:44:47.811Z,13.30
2019-05-10T20:47:17.861Z,13.20
2019-05-10T20:49:47.825Z,13.10
2019-05-10T20:52:17.864Z,13.00
2019-05-10T20:54:47.883Z,13.00
2019-05-10T20:57:17.903Z,12.90
2019-05-10T20:59:47.887Z,13.10
2019-05-10T21:02:17.907Z,13.20
2019-05-10T21:04:48.205Z,13.10
2019-05-10T21:07:18.326Z,13.00
2019-05-10T21:09:54.480Z,13.00
2019-05-10T21:12:24.547Z,13.00
2019-05-10T21:14:54.538Z,12.90
2019-05-10T21:17:24.554Z,12.90
2019-05-10T21:19:54.518Z,13.30
2019-05-10T21:22:24.568Z,13.40
2019-05-10T21:24:54.542Z,13.40
2019-05-10T21:27:24.603Z,13.20
2019-05-10T21:29:54.583Z,12.90
2019-05-10T21:32:24.607Z,12.80
2019-05-10T21:34:54.683Z,12.70
2019-05-10T21:37:24.687Z,12.70
2019-05-10T21:39:54.721Z,12.70
2019-05-10T21:42:24.764Z,12.90
2019-05-10T21:44:54.823Z,12.70
2019-05-10T21:47:24.923Z,12.50
2019-05-10T21:49:53.954Z,12.40
2019-05-10T21:52:22.901Z,12.40
2019-05-10T21:54:51.920Z,12.60
2019-05-10T21:57:20.852Z,12.40
2019-05-10T21:59:49.826Z,12.30
2019-05-10T22:02:18.763Z,12.20
2019-05-10T22:04:48.314Z,12.20
2019-05-10T22:07:17.397Z,12.10
2019-05-10T22:09:46.511Z,12.20
2019-05-10T22:12:16.474Z,12.10
2019-05-10T22:14:46.459Z,12.10
2019-05-10T22:17:16.429Z,12.10
2019-05-10T22:19:46.432Z,12.10
2019-05-10T22:22:16.573Z,12.00
2019-05-10T22:24:46.652Z,12.00
2019-05-10T22:27:16.730Z,11.90
2019-05-10T22:29:46.828Z,11.90
2019-05-10T22:32:16.883Z,11.90
2019-05-10T22:34:46.865Z,12.00
2019-05-10T22:37:17.042Z,12.20
2019-05-10T22:39:47.018Z,12.10
2019-05-10T22:42:17.004Z,12.10
2019-05-10T22:44:47.003Z,12.20
2019-05-10T22:47:17.940Z,12.00
2019-05-10T22:49:47.940Z,11.90
2019-05-10T22:52:17.979Z,11.70
2019-05-10T22:54:49.118Z,11.70
2019-05-10T22:57:19.139Z,11.70
2019-05-10T22:59:49.243Z,11.90
2019-05-10T23:02:19.259Z,11.80
2019-05-10T23:04:49.278Z,11.80
2019-05-10T23:07:19.330Z,11.90
2019-05-10T23:09:49.385Z,11.90
2019-05-10T23:12:19.442Z,11.80
2019-05-10T23:14:49.417Z,11.80
2019-05-10T23:17:19.456Z,11.70
2019-05-10T23:19:49.559Z,11.60
2019-05-10T23:22:19.596Z,11.60
2019-05-10T23:24:49.716Z,11.50
2019-05-10T23:27:19.735Z,11.40
2019-05-10T23:29:49.952Z,11.40
2019-05-10T23:32:20.060Z,11.30
2019-05-10T23:34:50.096Z,11.20
2019-05-10T23:37:20.216Z,11.20
2019-05-10T23:39:51.392Z,11.10
2019-05-10T23:42:21.435Z,11.10
2019-05-10T23:44:51.560Z,11.00
2019-05-10T23:47:21.649Z,11.10
2019-05-10T23:49:51.795Z,11.00
2019-05-10T23:52:21.904Z,11.10
2019-05-10T23:54:51.966Z,11.10
2019-05-10T23:57:22.068Z,11.10
2019-05-10T23:59:52.111Z,11.10
